Time;durP1;ratioP1;P1;durP2;ratioP2;P2;SDS_P1;SDS_P2;PMS_P1;PMS_P2;Temp;Humidity;BMP_temperature;BMP_pressure;BME280_temperature;BME280_humidity;BME280_pressure;Samples;Min_cycle;Max_cycle;Signal;HPM_P1;HPM_P2
2022/11/24 00:01:19;;;;;;;8.48;1.50;;;7.80;99.90;;;;;;5038043;28;20056;-77
2022/11/24 00:03:52;;;;;;;14.82;1.30;;;7.80;99.90;;;;;;5036672;28;20045;-77
2022/11/24 00:06:21;;;;;;;12.27;1.45;;;7.80;99.90;;;;;;5037518;28;20057;-77
2022/11/24 00:08:48;;;;;;;;;;;7.80;99.90;;;;;;5037685;28;20052;-77
2022/11/24 00:11:19;;;;;;;13.70;1.90;;;7.70;99.90;;;;;;5036155;28;19929;-77
2022/11/24 00:13:47;;;;;;;10.40;1.52;;;7.70;99.90;;;;;;5037774;28;20049;-77
2022/11/24 00:16:17;;;;;;;17.27;2.08;;;7.70;99.90;;;;;;5018521;28;20060;-76
2022/11/24 00:18:48;;;;;;;21.77;1.77;;;7.60;99.90;;;;;;5037237;28;20064;-76
2022/11/24 00:21:17;;;;;;;20.50;2.28;;;7.70;99.90;;;;;;5020088;28;20054;-77
2022/11/24 00:23:46;;;;;;;20.15;2.25;;;7.60;99.90;;;;;;5035807;28;20048;-77
2022/11/24 00:26:19;;;;;;;17.77;2.45;;;7.60;99.90;;;;;;5020105;28;20052;-77
2022/11/24 00:28:48;;;;;;;16.38;2.20;;;7.60;99.90;;;;;;5037356;28;20046;-77
2022/11/24 00:31:20;;;;;;;23.50;2.58;;;7.60;99.90;;;;;;5035906;28;20487;-76
2022/11/24 00:33:50;;;;;;;21.23;2.28;;;7.60;99.90;;;;;;5036914;28;20046;-77
2022/11/24 00:36:20;;;;;;;17.08;2.00;;;7.50;99.90;;;;;;5035465;28;20371;-77
2022/11/24 00:38:51;;;;;;;20.63;2.42;;;7.60;99.90;;;;;;5036996;28;20057;-76
2022/11/24 00:41:19;;;;;;;21.67;2.35;;;7.70;99.90;;;;;;5036997;28;20487;-77
2022/11/24 00:43:46;;;;;;;22.08;2.38;;;7.60;99.90;;;;;;5035736;28;20037;-77
2022/11/24 00:46:14;;;;;;;19.48;2.38;;;7.50;99.90;;;;;;5036828;28;20464;-77
2022/11/24 00:48:41;;;;;;;19.80;2.70;;;7.50;99.90;;;;;;5036787;28;20361;-77
2022/11/24 00:51:11;;;;;;;26.73;2.35;;;7.40;99.90;;;;;;5018181;28;20475;-76
2022/11/24 00:53:39;;;;;;;24.85;2.80;;;7.50;99.90;;;;;;5036435;28;20041;-77
2022/11/24 00:56:08;;;;;;;24.65;2.85;;;7.50;99.90;;;;;;5018333;28;20053;-77
2022/11/24 00:58:36;;;;;;;17.27;2.50;;;7.40;99.90;;;;;;5036494;28;20053;-77
2022/11/24 01:01:12;;;;;;;19.13;2.58;;;7.50;99.90;;;;;;5018880;28;20053;-77
2022/11/24 01:03:41;;;;;;;18.90;3.03;;;7.50;99.90;;;;;;5035545;28;20357;-76
2022/11/24 01:06:14;;;;;;;22.20;2.85;;;7.40;99.90;;;;;;5036324;28;20045;-77
2022/11/24 01:08:42;;;;;;;18.50;2.80;;;7.40;99.90;;;;;;5036359;28;20045;-77
2022/11/24 01:11:28;;;;;;;22.20;3.00;;;7.60;99.90;;;;;;5018060;28;20046;-77
2022/11/24 01:13:57;;;;;;;16.13;2.13;;;7.40;99.90;;;;;;5036345;28;20365;-77
2022/11/24 01:16:31;;;;;;;21.45;2.38;;;7.50;99.90;;;;;;5034980;28;20056;-77
2022/11/24 01:18:59;;;;;;;16.92;2.05;;;7.50;99.90;;;;;;5036332;28;20068;-77
2022/11/24 01:21:27;;;;;;;23.95;2.85;;;7.60;99.90;;;;;;5035858;28;20053;-77
2022/11/24 01:23:54;;;;;;;22.55;2.47;;;7.60;99.90;;;;;;5034724;28;20365;-77
2022/11/24 01:26:22;;;;;;;24.88;2.70;;;7.60;99.90;;;;;;5035850;28;20461;-76
2022/11/24 01:28:54;;;;;;;30.42;2.88;;;7.50;99.90;;;;;;5034832;28;20060;-77
2022/11/24 01:31:22;;;;;;;21.35;2.80;;;7.40;99.90;;;;;;5034675;28;20491;-77
2022/11/24 01:33:50;;;;;;;26.10;2.50;;;7.30;99.90;;;;;;5035908;28;20060;-77
2022/11/24 01:36:17;;;;;;;21.05;2.45;;;7.30;99.90;;;;;;5017370;28;20472;-77
2022/11/24 01:38:45;;;;;;;20.67;2.38;;;7.20;99.90;;;;;;5035794;28;20049;-77
2022/11/24 01:41:16;;;;;;;22.15;2.80;;;7.10;99.90;;;;;;5036030;28;20357;-76
2022/11/24 01:43:45;;;;;;;18.27;2.50;;;7.10;99.90;;;;;;5034750;28;20353;-77
2022/11/24 01:46:29;;;;;;;17.48;2.55;;;7.00;99.90;;;;;;5018398;28;20499;-77
2022/11/24 01:49:08;;;;;;;22.88;2.58;;;7.00;99.90;;;;;;5035635;28;20475;-77
2022/11/24 01:51:41;;;;;;;23.10;2.60;;;6.90;99.90;;;;;;5018426;28;20372;-76
2022/11/24 01:54:21;;;;;;;19.73;2.45;;;6.90;99.90;;;;;;5018347;28;20476;-76
2022/11/24 01:56:52;;;;;;;23.48;2.65;;;6.80;99.90;;;;;;5016483;28;20061;-76
2022/11/24 01:59:21;;;;;;;20.90;2.33;;;6.80;99.90;;;;;;5017895;28;20384;-76
2022/11/24 02:01:50;;;;;;;;;;;6.80;99.90;;;;;;5018327;28;20053;-76
2022/11/24 02:04:23;;;;;;;21.63;2.28;;;6.70;99.90;;;;;;5033990;28;19921;-77
2022/11/24 02:06:51;;;;;;;18.67;2.00;;;6.70;99.90;;;;;;5035381;28;20049;-76
2022/11/24 02:09:25;;;;;;;18.05;1.92;;;6.60;99.90;;;;;;5033927;28;20375;-77
2022/11/24 02:11:53;;;;;;;16.42;1.88;;;6.50;99.90;;;;;;5035225;28;20053;-76
2022/11/24 02:14:23;;;;;;;19.25;2.10;;;6.50;99.90;;;;;;5035003;28;20483;-76
2022/11/24 02:16:52;;;;;;;20.98;2.45;;;6.90;99.90;;;;;;5034410;28;20060;-77
2022/11/24 02:19:31;;;;;;;14.25;1.80;;;6.50;99.90;;;;;;5017677;28;20094;-76
2022/11/24 02:22:01;;;;;;;14.77;1.80;;;6.40;99.90;;;;;;5034861;28;20057;-76
2022/11/24 02:24:29;;;;;;;15.63;2.15;;;6.40;99.90;;;;;;5033605;28;20472;-76
2022/11/24 02:26:56;;;;;;;14.13;1.83;;;6.30;99.90;;;;;;5018087;28;20045;-76
2022/11/24 02:29:24;;;;;;;22.60;2.33;;;6.30;99.90;;;;;;5016421;28;20049;-76
2022/11/24 02:31:56;;;;;;;14.93;1.95;;;6.20;99.90;;;;;;5035116;28;20444;-77
2022/11/24 02:34:24;;;;;;;25.67;2.08;;;6.30;99.90;;;;;;5034893;28;20053;-76
2022/11/24 02:36:52;;;;;;;20.60;2.35;;;6.20;99.90;;;;;;5033538;28;20049;-76
2022/11/24 02:39:19;;;;;;;20.05;2.00;;;6.10;99.90;;;;;;5034334;28;20061;-76
2022/11/24 02:41:55;;;;;;;23.55;2.35;;;6.10;99.90;;;;;;5017518;28;20050;-76
2022/11/24 02:44:25;;;;;;;17.35;2.15;;;6.40;99.90;;;;;;5033598;28;20052;-76
2022/11/24 02:47:11;;;;;;;28.52;2.72;;;6.20;99.90;;;;;;5017735;28;20041;-77
2022/11/24 02:49:40;;;;;;;19.33;2.33;;;6.10;99.90;;;;;;5033502;28;20380;-77
2022/11/24 02:52:07;;;;;;;19.75;2.55;;;6.10;99.90;;;;;;5034847;28;20049;-76
2022/11/24 02:54:35;;;;;;;22.48;3.13;;;6.10;99.90;;;;;;5017606;28;20384;-76
2022/11/24 02:57:03;;;;;;;22.15;2.50;;;6.10;99.90;;;;;;5033375;28;20041;-76
2022/11/24 02:59:31;;;;;;;28.25;3.45;;;6.10;99.90;;;;;;5034462;28;20372;-76
2022/11/24 03:01:58;;;;;;;24.55;2.75;;;6.20;99.90;;;;;;5034608;28;20460;-76
2022/11/24 03:04:26;;;;;;;32.63;3.65;;;6.20;99.90;;;;;;5016182;28;20457;-76
2022/11/24 03:06:53;;;;;;;21.80;3.15;;;6.20;99.90;;;;;;5017635;28;20038;-76
2022/11/24 03:09:21;;;;;;;25.02;3.15;;;6.20;99.90;;;;;;5033279;28;20046;-76
2022/11/24 03:11:48;;;;;;;27.58;3.28;;;6.20;99.90;;;;;;5034465;28;20045;-76
2022/11/24 03:14:16;;;;;;;31.80;3.10;;;6.10;99.90;;;;;;5034536;28;20041;-76
2022/11/24 03:16:43;;;;;;;24.42;2.90;;;6.10;99.90;;;;;;5033217;28;20057;-76
2022/11/24 03:19:11;;;;;;;26.65;2.90;;;6.10;99.90;;;;;;5034382;28;20381;-76
2022/11/24 03:21:39;;;;;;;23.75;2.85;;;6.10;99.90;;;;;;5017400;28;20046;-76
2022/11/24 03:24:06;;;;;;;26.88;3.35;;;6.10;99.90;;;;;;5033236;28;20053;-76
2022/11/24 03:26:34;;;;;;;27.60;3.20;;;6.10;99.90;;;;;;5034428;28;20049;-76
2022/11/24 03:29:02;;;;;;;28.25;3.28;;;6.10;99.90;;;;;;5033796;28;20372;-76
2022/11/24 03:31:29;;;;;;;39.15;3.17;;;6.10;99.90;;;;;;5034843;28;20060;-76
2022/11/24 03:33:57;;;;;;;21.75;3.00;;;6.10;99.90;;;;;;5034214;28;20053;-76
2022/11/24 03:36:24;;;;;;;26.95;3.22;;;6.10;99.90;;;;;;5033320;28;20060;-76
2022/11/24 03:38:52;;;;;;;29.52;3.40;;;6.20;99.90;;;;;;5016895;28;20372;-76
2022/11/24 03:41:19;;;;;;;34.20;2.90;;;6.10;99.90;;;;;;5034082;28;20050;-76
2022/11/24 03:43:47;;;;;;;27.83;2.83;;;6.10;99.90;;;;;;5032973;28;20057;-76
2022/11/24 03:46:14;;;;;;;30.50;3.15;;;6.10;99.90;;;;;;5017500;28;20038;-76
2022/11/24 03:48:42;;;;;;;31.17;3.00;;;6.10;99.90;;;;;;5034458;28;20041;-76
2022/11/24 03:51:10;;;;;;;28.92;3.17;;;6.30;99.90;;;;;;5016378;28;20033;-76
2022/11/24 03:53:38;;;;;;;34.65;2.92;;;6.10;99.90;;;;;;5037913;28;20049;-77
2022/11/24 03:56:05;;;;;;;20.42;3.05;;;6.00;99.90;;;;;;5036653;28;20046;-76
2022/11/24 03:58:33;;;;;;;27.30;2.78;;;6.00;99.90;;;;;;5020865;28;20372;-76
2022/11/24 04:01:01;;;;;;;34.22;3.33;;;6.00;99.90;;;;;;5020295;28;20045;-77
2022/11/24 04:03:28;;;;;;;28.00;3.35;;;6.00;99.90;;;;;;5036308;28;20376;-76
2022/11/24 04:05:56;;;;;;;31.73;3.72;;;6.00;99.90;;;;;;5037696;28;20052;-76
2022/11/24 04:08:23;;;;;;;27.75;2.72;;;6.00;99.90;;;;;;5037491;28;20483;-76
2022/11/24 04:10:52;;;;;;;25.25;3.13;;;6.30;99.90;;;;;;5036107;28;20065;-76
2022/11/24 04:13:25;;;;;;;38.53;3.63;;;6.10;99.90;;;;;;5020115;28;20041;-78
2022/11/24 04:15:53;;;;;;;30.77;3.20;;;6.10;99.90;;;;;;5036469;28;20045;-76
2022/11/24 04:18:20;;;;;;;32.38;3.42;;;6.10;99.90;;;;;;5037144;28;20060;-76
2022/11/24 04:20:51;;;;;;;29.77;3.25;;;6.10;99.90;;;;;;5037146;28;20057;-77
2022/11/24 04:23:18;;;;;;;32.05;3.67;;;6.10;99.90;;;;;;5036084;28;20053;-77
2022/11/24 04:25:46;;;;;;;27.83;3.45;;;6.10;99.90;;;;;;5037403;28;20048;-76
2022/11/24 04:28:14;;;;;;;30.83;3.90;;;6.10;99.90;;;;;;5037114;28;20056;-76
2022/11/24 04:30:43;;;;;;;32.28;3.63;;;6.10;99.90;;;;;;5035985;28;20037;-76
2022/11/24 04:33:12;;;;;;;30.65;3.50;;;6.70;99.90;;;;;;5037205;28;20368;-76
2022/11/24 04:35:39;;;;;;;33.15;3.42;;;6.00;99.90;;;;;;5019461;28;20056;-76
2022/11/24 04:38:07;;;;;;;31.80;3.55;;;6.00;99.90;;;;;;5035994;28;20046;-76
2022/11/24 04:40:35;;;;;;;27.63;3.50;;;6.00;99.90;;;;;;5036818;28;20072;-76
2022/11/24 04:43:03;;;;;;;;;;;6.00;99.90;;;;;;5036004;28;20055;-76
2022/11/24 04:45:30;;;;;;;33.47;3.90;;;5.00;99.90;;;;;;5036817;28;19928;-76
2022/11/24 04:47:57;;;;;;;42.33;4.03;;;6.00;99.90;;;;;;5036953;28;20468;-76
2022/11/24 04:50:25;;;;;;;33.15;3.78;;;6.90;99.90;;;;;;5035402;28;20279;-76
2022/11/24 04:52:52;;;;;;;32.58;4.00;;;5.90;99.90;;;;;;5036944;28;20049;-76
2022/11/24 04:55:22;;;;;;;37.08;4.40;;;5.90;99.90;;;;;;5036718;28;20045;-76
2022/11/24 04:57:49;;;;;;;35.53;3.35;;;5.80;99.90;;;;;;5035445;28;20464;-76
2022/11/24 05:00:18;;;;;;;43.13;4.72;;;5.90;99.90;;;;;;5036677;28;20468;-76
2022/11/24 05:02:45;;;;;;;;;;;5.90;99.90;;;;;;5018450;28;20045;-76
2022/11/24 05:05:12;;;;;;;28.90;4.32;;;5.90;99.90;;;;;;5019487;28;19921;-76
2022/11/24 05:07:40;;;;;;;33.75;3.90;;;5.90;99.90;;;;;;5036213;28;20400;-76
2022/11/24 05:12:56;;;;;;;38.90;4.05;;;5.90;99.90;;;;;;5019152;28;20057;-76
2022/11/24 05:15:23;;;;;;;42.58;4.07;;;5.80;99.90;;;;;;5036259;28;20046;-76
2022/11/24 05:17:51;;;;;;;47.25;4.30;;;6.40;99.90;;;;;;5017587;28;20049;-77
2022/11/24 05:20:19;;;;;;;36.00;4.22;;;7.30;99.90;;;;;;5035937;28;20041;-76
2022/11/24 05:22:47;;;;;;;40.90;4.13;;;5.90;99.90;;;;;;5017550;28;20471;-76
2022/11/24 05:25:14;;;;;;;41.97;3.95;;;5.90;99.90;;;;;;5035941;28;20049;-76
2022/11/24 05:27:42;;;;;;;40.55;4.45;;;5.90;99.90;;;;;;5018727;28;20091;-76
2022/11/24 05:30:10;;;;;;;39.30;4.07;;;5.90;99.90;;;;;;5034743;28;20472;-76
2022/11/24 05:32:37;;;;;;;;;;;5.90;99.90;;;;;;5018876;28;20368;-76
2022/11/24 05:35:06;;;;;;;42.72;4.85;;;5.90;99.90;;;;;;5035736;28;20255;-76
2022/11/24 05:37:35;;;;;;;28.95;3.67;;;5.90;99.90;;;;;;5023517;28;20064;-76
2022/11/24 05:40:04;;;;;;;41.80;5.05;;;5.90;99.90;;;;;;5054676;28;20052;-76
2022/11/24 05:42:41;;;;;;;31.70;4.10;;;5.90;99.90;;;;;;5053424;28;20044;-76
2022/11/24 05:45:18;;;;;;;36.75;3.80;;;5.80;99.90;;;;;;5054880;28;20383;-76
2022/11/24 05:47:47;;;;;;;35.88;3.90;;;5.80;99.90;;;;;;5055400;28;20044;-76
2022/11/24 05:50:17;;;;;;;46.50;4.95;;;7.00;99.90;;;;;;5054304;28;20389;-76
2022/11/24 05:52:45;;;;;;;46.03;4.07;;;5.80;99.90;;;;;;5055241;28;20376;-76
2022/11/24 05:55:14;;;;;;;47.85;4.43;;;5.90;99.90;;;;;;5055280;28;20045;-76
2022/11/24 05:57:42;;;;;;;36.97;4.25;;;8.00;99.90;;;;;;5054165;28;20375;-76
2022/11/24 06:00:10;;;;;;;35.92;3.97;;;5.80;99.90;;;;;;5055278;28;20049;-76
2022/11/24 06:02:41;;;;;;;44.90;4.57;;;5.90;99.90;;;;;;5054399;28;20056;-76
2022/11/24 06:05:08;;;;;;;44.13;5.15;;;5.80;99.90;;;;;;5055244;28;20467;-76
2022/11/24 06:07:36;;;;;;;46.53;5.05;;;6.50;99.90;;;;;;5054022;28;20045;-75
2022/11/24 06:10:04;;;;;;;37.53;4.15;;;5.80;99.90;;;;;;5053893;28;20045;-76
2022/11/24 06:12:34;;;;;;;44.38;4.60;;;5.80;99.90;;;;;;5054884;28;20060;-77
2022/11/24 06:15:05;;;;;;;39.25;4.07;;;5.60;99.90;;;;;;5054612;28;20044;-76
2022/11/24 06:17:33;;;;;;;37.08;4.15;;;5.70;99.90;;;;;;5047678;28;20376;-76
2022/11/24 06:20:00;;;;;;;44.58;5.25;;;5.70;99.90;;;;;;5035047;28;20057;-76
2022/11/24 06:22:28;;;;;;;50.67;4.85;;;5.70;99.90;;;;;;5033883;28;20080;-76
2022/11/24 06:24:55;;;;;;;36.13;4.65;;;6.90;99.90;;;;;;5033971;28;20057;-76
2022/11/24 06:27:23;;;;;;;43.03;4.70;;;6.50;99.90;;;;;;5035081;28;20044;-76
2022/11/24 06:29:51;;;;;;;51.03;4.50;;;5.70;99.90;;;;;;5033819;28;20044;-76
2022/11/24 06:32:18;;;;;;;47.45;5.00;;;6.60;99.90;;;;;;5034984;28;20048;-76
2022/11/24 06:34:46;;;;;;;39.72;4.72;;;5.80;99.90;;;;;;5034712;28;20365;-76
2022/11/24 06:37:14;;;;;;;49.95;4.82;;;5.80;99.90;;;;;;5023651;28;20488;-76
2022/11/24 06:39:41;;;;;;;52.50;5.50;;;8.30;99.90;;;;;;5014975;28;20457;-75
2022/11/24 06:42:09;;;;;;;45.15;4.75;;;5.70;99.90;;;;;;4997972;28;20054;-75
2022/11/24 06:44:36;;;;;;;47.58;5.25;;;5.70;99.90;;;;;;4996614;28;20069;-76
2022/11/24 06:47:04;;;;;;;49.83;5.38;;;5.80;99.90;;;;;;4997592;28;20064;-76
2022/11/24 06:49:31;;;;;;;49.38;5.07;;;5.80;99.90;;;;;;4996801;28;20042;-76
2022/11/24 06:51:59;;;;;;;42.78;4.95;;;7.10;99.90;;;;;;5014892;28;20475;-76
2022/11/24 06:54:26;;;;;;;48.67;4.53;;;5.80;99.90;;;;;;5014765;28;20065;-76
2022/11/24 06:56:58;;;;;;;48.03;5.25;;;5.70;99.90;;;;;;5013775;28;20053;-77
2022/11/24 06:59:26;;;;;;;52.58;5.03;;;5.70;99.90;;;;;;5014871;28;20072;-76
2022/11/24 07:01:53;;;;;;;;;;;5.60;99.90;;;;;;4998006;28;20050;-75
2022/11/24 07:04:21;;;;;;;54.20;4.97;;;5.60;99.90;;;;;;5013587;28;19933;-76
2022/11/24 07:06:48;;;;;;;52.03;4.93;;;6.30;99.90;;;;;;5014884;28;20053;-75
2022/11/24 07:09:16;;;;;;;49.90;4.97;;;5.60;99.90;;;;;;5013607;28;20058;-76
2022/11/24 07:11:43;;;;;;;52.72;4.88;;;5.50;99.90;;;;;;4997512;28;20046;-76
2022/11/24 07:14:11;;;;;;;47.42;4.95;;;6.50;99.90;;;;;;5014530;28;20046;-76
2022/11/24 07:16:39;;;;;;;46.58;5.00;;;5.50;99.90;;;;;;5013583;28;20052;-75
2022/11/24 07:19:08;;;;;;;49.50;5.13;;;7.60;99.90;;;;;;4997441;28;20046;-75
2022/11/24 07:21:36;;;;;;;;;;;5.50;99.90;;;;;;4965564;28;20076;-76
2022/11/24 07:24:03;;;;;;;51.27;5.47;;;5.50;99.90;;;;;;4996346;28;19922;-76
2022/11/24 07:26:36;;;;;;;62.58;5.97;;;5.50;99.90;;;;;;4982204;28;20318;-76
2022/11/24 07:29:04;;;;;;;46.97;4.60;;;5.40;99.90;;;;;;5017912;28;20046;-76
2022/11/24 07:31:31;;;;;;;60.40;4.88;;;4.10;99.90;;;;;;5018221;28;20049;-76
2022/11/24 07:33:59;;;;;;;50.60;5.78;;;5.40;99.90;;;;;;5018210;28;20069;-76
2022/11/24 07:36:29;;;;;;;47.22;4.80;;;5.40;99.90;;;;;;5003931;28;20042;-76
2022/11/24 07:38:59;;;;;;;47.55;4.57;;;5.40;99.90;;;;;;5037878;28;20038;-76
2022/11/24 07:41:29;;;;;;;56.00;5.38;;;5.40;99.90;;;;;;5037837;28;20042;-76
2022/11/24 07:43:56;;;;;;;50.45;5.45;;;5.40;99.90;;;;;;5036627;28;20060;-75
2022/11/24 07:46:24;;;;;;;48.13;6.05;;;5.40;99.90;;;;;;5056952;28;20033;-77
2022/11/24 07:48:51;;;;;;;57.60;5.53;;;6.00;99.90;;;;;;5056567;28;20071;-77
2022/11/24 07:51:19;;;;;;;44.80;5.18;;;5.50;99.90;;;;;;5056589;28;20044;-78
2022/11/24 07:53:46;;;;;;;65.15;5.75;;;6.30;99.90;;;;;;5057241;28;20045;-77
2022/11/24 07:56:16;;;;;;;45.75;5.32;;;5.40;99.90;;;;;;5056826;28;20045;-81
2022/11/24 07:58:48;;;;;;;50.63;5.38;;;5.50;99.90;;;;;;5056383;28;20364;-77
2022/11/24 08:01:19;;;;;;;60.53;6.57;;;6.40;99.90;;;;;;5057360;28;20067;-77
2022/11/24 08:03:52;;;;;;;52.80;5.97;;;5.40;99.90;;;;;;5056422;28;20360;-77
2022/11/24 08:06:21;;;;;;;65.50;6.88;;;5.40;99.90;;;;;;5056089;28;20061;-77
2022/11/24 08:08:59;;;;;;;46.42;5.28;;;5.70;99.90;;;;;;5056181;28;20056;-78
2022/11/24 08:11:30;;;;;;;51.78;5.63;;;7.40;99.90;;;;;;5039954;28;20041;-76
2022/11/24 08:13:58;;;;;;;61.05;5.45;;;7.50;99.90;;;;;;5039560;28;20045;-77
2022/11/24 08:16:33;;;;;;;40.08;5.18;;;6.60;99.90;;;;;;5055004;28;20041;-76
2022/11/24 08:19:02;;;;;;;58.25;6.68;;;5.90;99.90;;;;;;5056191;28;20041;-76
2022/11/24 08:21:32;;;;;;;45.67;5.40;;;6.20;99.90;;;;;;5056642;28;20060;-76
2022/11/24 08:24:02;;;;;;;60.22;5.75;;;6.70;99.90;;;;;;5055603;28;20491;-77
2022/11/24 08:26:30;;;;;;;62.97;5.32;;;5.90;99.90;;;;;;5056754;28;20472;-77
2022/11/24 08:29:00;;;;;;;56.70;6.15;;;6.10;99.90;;;;;;5055276;28;20060;-77
2022/11/24 08:31:34;;;;;;;68.65;8.10;;;6.50;99.90;;;;;;5055928;28;20048;-77
2022/11/24 08:34:04;;;;;;;60.03;6.13;;;4.50;99.90;;;;;;5050691;28;20049;-76
2022/11/24 08:36:32;;;;;;;59.80;6.60;;;6.20;99.90;;;;;;5044132;28;20052;-74
2022/11/24 08:39:00;;;;;;;50.20;5.68;;;6.30;99.90;;;;;;5049135;28;20056;-75
2022/11/24 08:41:28;;;;;;;57.10;6.20;;;6.40;99.90;;;;;;5055599;28;20053;-75
2022/11/24 08:43:57;;;;;;;56.03;6.10;;;7.70;99.90;;;;;;5054683;28;20045;-79
2022/11/24 08:46:24;;;;;;;58.60;5.95;;;8.80;99.90;;;;;;5054575;28;20052;-78
2022/11/24 08:48:53;;;;;;;54.33;6.22;;;7.60;99.90;;;;;;5055421;28;20076;-78
2022/11/24 08:51:24;;;;;;;53.05;6.28;;;8.60;99.90;;;;;;5055497;28;20045;-78
2022/11/24 08:54:14;;;;;;;49.80;6.20;;;6.80;99.90;;;;;;5056385;28;20445;-78
2022/11/24 08:56:55;;;;;;;57.75;6.93;;;8.00;99.90;;;;;;5052579;28;20075;-78
2022/11/24 08:59:23;;;;;;;50.05;6.18;;;9.30;99.90;;;;;;5039003;28;20463;-78
2022/11/24 09:01:50;;;;;;;44.78;5.70;;;9.10;99.90;;;;;;5038851;28;20064;-78
2022/11/24 09:04:18;;;;;;;58.88;6.47;;;9.00;99.90;;;;;;5054982;28;20368;-78
2022/11/24 09:06:46;;;;;;;41.90;5.65;;;8.90;99.90;;;;;;5056101;28;20048;-79
2022/11/24 09:09:14;;;;;;;55.72;5.93;;;9.80;99.90;;;;;;5054445;28;20045;-78
2022/11/24 09:11:41;;;;;;;49.33;5.68;;;9.80;99.90;;;;;;5056193;28;20037;-78
2022/11/24 09:14:09;;;;;;;53.92;6.18;;;7.60;99.90;;;;;;5056044;28;20041;-78
2022/11/24 09:16:36;;;;;;;59.42;6.53;;;9.70;99.90;;;;;;5054010;28;20041;-78
2022/11/24 09:19:08;;;;;;;43.45;6.03;;;8.90;99.90;;;;;;5055737;28;20052;-78
2022/11/24 09:21:37;;;;;;;56.25;6.32;;;9.60;99.90;;;;;;5055744;28;20053;-78
2022/11/24 09:24:06;;;;;;;47.45;5.45;;;10.80;99.90;;;;;;5054268;28;20049;-78
2022/11/24 09:26:36;;;;;;;48.80;6.63;;;8.00;99.90;;;;;;5056087;28;20045;-78
2022/11/24 09:29:11;;;;;;;47.35;5.68;;;7.40;99.90;;;;;;5055679;28;20052;-78
2022/11/24 09:31:39;;;;;;;57.30;6.70;;;10.20;99.90;;;;;;5056104;28;20056;-78
2022/11/24 09:34:11;;;;;;;48.55;6.63;;;9.70;99.90;;;;;;5055659;28;20045;-77
2022/11/24 09:36:38;;;;;;;45.40;6.95;;;9.10;99.90;;;;;;5049477;28;20041;-78
2022/11/24 09:39:06;;;;;;;48.90;6.05;;;9.50;99.90;;;;;;5035842;28;20057;-77
2022/11/24 09:41:57;;;;;;;47.55;6.05;;;8.50;99.90;;;;;;5035550;28;20058;-77
2022/11/24 09:44:50;;;;;;;56.15;6.10;;;8.70;99.90;;;;;;5033927;28;20372;-77
2022/11/24 09:47:35;;;;;;;50.65;6.30;;;8.70;99.90;;;;;;5003711;28;20049;-77
2022/11/24 09:50:22;;;;;;;41.95;6.13;;;11.00;99.90;;;;;;5016054;28;20060;-77
2022/11/24 09:53:00;;;;;;;58.03;6.28;;;8.90;99.90;;;;;;5035894;28;20052;-77
2022/11/24 09:55:37;;;;;;;43.88;6.40;;;8.90;99.90;;;;;;5018272;28;20042;-77
2022/11/24 09:58:29;;;;;;;51.42;6.85;;;9.00;99.90;;;;;;5017313;28;20388;-77
2022/11/24 10:01:04;;;;;;;59.47;6.38;;;9.10;99.90;;;;;;5018454;28;20060;-77
2022/11/24 10:03:35;;;;;;;46.67;6.60;;;10.00;99.90;;;;;;5034490;28;20056;-77
2022/11/24 10:06:17;;;;;;;67.72;7.43;;;9.20;99.90;;;;;;5035555;28;20049;-77
2022/11/24 10:09:13;;;;;;;52.50;6.32;;;10.90;99.90;;;;;;5034969;28;20049;-77
2022/11/24 10:11:57;;;;;;;66.07;7.65;;;9.30;99.90;;;;;;5035537;28;20464;-77
2022/11/24 10:15:02;;;;;;;63.65;6.75;;;9.40;99.90;;;;;;5001923;28;20369;-77
2022/11/24 10:17:51;;;;;;;52.78;6.55;;;9.50;99.90;;;;;;5033683;28;20046;-77
2022/11/24 10:20:40;;;;;;;66.32;7.78;;;9.60;99.90;;;;;;5001250;28;20054;-77
2022/11/24 10:23:21;;;;;;;47.72;6.50;;;9.80;99.90;;;;;;5033886;28;20061;-77
2022/11/24 10:25:56;;;;;;;71.68;6.85;;;9.80;99.90;;;;;;5017636;28;20060;-77
2022/11/24 10:28:47;;;;;;;67.20;7.53;;;9.90;99.90;;;;;;5035183;28;20437;-77
2022/11/24 10:31:29;;;;;;;65.78;7.25;;;10.10;99.90;;;;;;5033614;28;20053;-77
2022/11/24 10:34:02;;;;;;;70.32;7.88;;;10.40;99.90;;;;;;5034634;28;20050;-77
2022/11/24 10:36:59;;;;;;;55.25;7.00;;;10.00;99.90;;;;;;5033565;28;20053;-78
2022/11/24 10:39:40;;;;;;;80.17;7.77;;;10.10;99.90;;;;;;5033690;28;20373;-77
2022/11/24 10:42:30;;;;;;;67.47;7.43;;;10.00;99.90;;;;;;5017321;28;20487;-77
2022/11/24 10:45:21;;;;;;;50.08;6.70;;;10.00;99.90;;;;;;5034738;28;20068;-77
2022/11/24 10:47:49;;;;;;;59.53;7.60;;;10.00;99.90;;;;;;5033922;28;20049;-77
2022/11/24 10:50:31;;;;;;;69.28;8.07;;;10.70;99.90;;;;;;5033078;28;20061;-77
2022/11/24 10:53:10;;;;;;;68.45;7.80;;;10.20;99.90;;;;;;5017619;28;20037;-77
2022/11/24 10:55:56;;;;;;;72.63;7.55;;;10.30;99.90;;;;;;5034438;28;20052;-76
2022/11/24 10:58:37;;;;;;;71.53;7.78;;;10.40;99.90;;;;;;5034256;28;20049;-76
2022/11/24 11:01:14;;;;;;;55.83;7.25;;;9.30;99.90;;;;;;5036198;28;20060;-76
2022/11/24 11:03:56;;;;;;;63.17;6.90;;;11.70;99.90;;;;;;5019964;28;20049;-77
2022/11/24 11:06:29;;;;;;;64.05;7.47;;;10.50;99.90;;;;;;5038179;28;20116;-73
2022/11/24 11:09:23;;;;;;;69.10;7.25;;;10.50;99.90;;;;;;5004440;28;20057;-76
2022/11/24 11:11:52;;;;;;;55.97;6.50;;;10.60;99.90;;;;;;5036361;28;20056;-77
2022/11/24 11:14:32;;;;;;;58.95;7.78;;;10.60;99.90;;;;;;5038018;28;20041;-77
2022/11/24 11:17:22;;;;;;;54.70;6.80;;;10.60;99.90;;;;;;5003131;28;20081;-77
2022/11/24 11:19:51;;;;;;;61.42;6.95;;;10.90;99.90;;;;;;5037471;28;20050;-76
2022/11/24 11:22:31;;;;;;;;;;;10.90;99.90;;;;;;5037177;28;20045;-77
2022/11/24 11:25:19;;;;;;;57.35;6.75;;;10.90;99.90;;;;;;5021214;28;19928;-76
2022/11/24 11:27:48;;;;;;;53.42;7.53;;;11.00;99.90;;;;;;5020199;28;20054;-76
2022/11/24 11:30:17;;;;;;;46.35;6.85;;;11.30;99.90;;;;;;5018771;28;20056;-76
2022/11/24 11:33:22;;;;;;;42.97;6.20;;;11.20;99.90;;;;;;5020254;28;20046;-76
2022/11/24 11:36:11;;;;;;;41.03;6.20;;;11.40;99.90;;;;;;5036250;28;20372;-77
2022/11/24 11:38:40;;;;;;;45.30;6.13;;;11.70;99.90;;;;;;5037534;28;20062;-76
2022/11/24 11:41:18;;;;;;;48.67;5.88;;;11.60;99.90;;;;;;5037516;28;20064;-76
2022/11/24 11:43:51;;;;;;;42.13;6.65;;;11.70;99.90;;;;;;5002920;28;20056;-77
2022/11/24 11:46:24;;;;;;;46.30;6.38;;;11.80;99.90;;;;;;5020246;28;20046;-78
2022/11/24 11:48:52;;;;;;;50.95;6.38;;;11.90;99.90;;;;;;5037283;28;20057;-77
2022/11/24 11:51:32;;;;;;;46.70;5.93;;;11.90;99.90;;;;;;5036742;28;20045;-78
2022/11/24 11:54:15;;;;;;;53.50;6.88;;;12.00;99.90;;;;;;5037373;28;20376;-78
2022/11/24 11:56:56;;;;;;;45.67;6.00;;;12.00;99.90;;;;;;5036265;28;20049;-78
2022/11/24 11:59:43;;;;;;;42.75;6.43;;;12.50;99.90;;;;;;5036997;28;20049;-78
2022/11/24 12:03:04;;;;;;;47.75;6.05;;;12.20;99.90;;;;;;5037466;28;20045;-79
2022/11/24 12:06:09;;;;;;;42.10;6.60;;;10.10;99.90;;;;;;4995986;28;20057;-79
2022/11/24 12:09:02;;;;;;;46.58;6.20;;;12.40;99.90;;;;;;5036890;28;20057;-78
2022/11/24 12:12:16;;;;;;;41.08;6.13;;;12.50;99.90;;;;;;5036033;28;20464;-78
2022/11/24 12:15:13;;;;;;;49.90;5.80;;;14.00;99.90;;;;;;5019369;28;20056;-77
2022/11/24 12:18:06;;;;;;;50.22;5.97;;;12.80;99.90;;;;;;5035886;28;20041;-78
2022/11/24 12:21:29;;;;;;;37.75;5.45;;;12.50;99.90;;;;;;5019499;28;20053;-77
2022/11/24 12:24:09;;;;;;;38.75;4.88;;;12.40;99.90;;;;;;5035687;28;20368;-77
2022/11/24 12:26:46;;;;;;;36.30;5.68;;;12.40;99.90;;;;;;5036660;28;20048;-79
2022/11/24 12:29:38;;;;;;;40.00;4.88;;;12.40;99.90;;;;;;5017504;28;20053;-79
2022/11/24 12:32:25;;;;;;;37.67;4.97;;;12.40;99.90;;;;;;5019422;28;20475;-80
2022/11/24 12:35:15;;;;;;;;;;;;;;;;;;;;;
2022/11/24 12:38:14;;;;;;;38.17;5.28;;;12.80;99.90;;;;;;5035766;28;20068;-82
2022/11/24 12:41:04;;;;;;;41.30;5.80;;;12.40;99.90;;;;;;5003133;28;20057;-81
2022/11/24 12:43:59;;;;;;;35.92;4.80;;;11.30;99.90;;;;;;5001698;28;20049;-81
2022/11/24 12:46:51;;;;;;;42.92;5.50;;;10.20;99.90;;;;;;5018981;28;20049;-78
2022/11/24 12:49:36;;;;;;;48.55;5.85;;;12.60;99.90;;;;;;5034096;28;20053;-80
2022/11/24 12:52:31;;;;;;;43.33;5.75;;;12.70;99.90;;;;;;5018943;28;20037;-80
2022/11/24 12:55:14;;;;;;;39.97;6.05;;;10.50;99.90;;;;;;5031481;28;20049;-81
2022/11/24 12:57:56;;;;;;;45.53;5.78;;;12.70;99.90;;;;;;5017812;28;20041;-81
2022/11/24 13:00:39;;;;;;;38.10;5.28;;;12.80;99.90;;;;;;5036510;28;20045;-81
2022/11/24 13:03:09;;;;;;;45.28;6.03;;;12.80;99.90;;;;;;5001942;28;20045;-80
2022/11/24 13:05:43;;;;;;;39.92;6.03;;;12.70;99.90;;;;;;5002428;28;20060;-80
2022/11/24 13:08:16;;;;;;;42.13;5.95;;;12.80;99.90;;;;;;5018539;28;20056;-80
2022/11/24 13:10:48;;;;;;;43.97;5.90;;;13.90;99.90;;;;;;5017653;28;20046;-80
2022/11/24 13:14:05;;;;;;;45.72;5.78;;;12.70;99.90;;;;;;5035804;28;20048;-81
2022/11/24 13:17:30;;;;;;;43.28;6.00;;;13.00;99.90;;;;;;5033889;28;20056;-75
2022/11/24 13:20:19;;;;;;;43.45;5.93;;;13.00;99.90;;;;;;4989811;28;20484;-78
2022/11/24 13:22:58;;;;;;;41.25;5.55;;;12.90;99.90;;;;;;5029352;28;20052;-76